Aérodrome :
LOGIN :

S'inscrire | Disclaimer

   EN    FR    IT 

 










Légende :    VFR   VFR Marginal   IFR   IFR Intensif   IFR Très Intensif
Visi : 
Plafond : 
>= 8 km
>= 3000ft
5 à 8 km
1000 à 3000 ft
1500m à 5 km
500 à 1000 ft
800 à 1500m
200 à 500 ft
< 800m
< 200 ft
Symboles :   Orages  Brouillard  Fortes neiges  Fortes précipitations  Vent > 20 kt
SIGMETs :   Divers  Orages  Givrage  Turbulence  Onde Orograph.  Cendres Volcan.






- Altitude de l'aérodrome : 235 ft
- Code IATA : BZG


EPBY - Bydgoszcz

DERNIER METAR :
  • 240030Z 03010KT 9999 -RA SCT005 BKN012 12/12 Q1008

METARs EXPIRÉS :
  • 240000Z 34006KT 320V020 3000 -RA BR BKN003 13/13 Q1008
  • 232330Z 24007KT 2800 -RA BR BKN006 13/13 Q1008
  • 232300Z 21006KT 2800 -RA BR SCT006 BKN012 13/13 Q1008
  • 232230Z 20003KT 160V250 2000 -RA BR SCT004 BKN007 13/13 Q1008 RERA
  • 232200Z 19007KT 170V230 4000 -RA BR BKN006 13/13 Q1009

TAF TAF EPBY
Valide du 24 à 00h jusqu'au 25 à 00h UTC


232330Z 2400/2424 VRB03KT 8000 BKN020
TEMPO 2400/2408 3000 RA BR BKN006
PROB30
TEMPO 2400/2406 1200 BR OVC003
BECMG 2406/2408 24010KT 9999 SCT020



MET'MAP, la Météo Aéronautique d'un coup d'oeil ! - Copyright ORBIFLY Décembre 2007 - Disclaimer

ORBIFLY MET'MAP TEAM :

Programmation & Développement : Alexandra Zaïnal
Sur une idée originale de : Baudouin d'Aumeries
Assistance à la programmation : Marc-Olivier Méhu
Soutien technique & logistique : Manuel Goepfert

Contact : metmap@orbifly.com




SOURCES & CREDITS :

   NOAA